TAF KMKE
KMKE 270538Z 2706/2812 16005KT P6SM BKN080 BKN200 FM271600 16008KT P6SM VCSH SCT015 OVC060 FM272300 29005KT P6SM SCT025 BKN035 FM280400 32008KT P6SM BKN035 FM280900 30011G22KT P6SM SCT150=
METAR KMKE
KMKE 261952Z 25003KT 10SM FEW080 BKN090 OVC120 M02/M14 A3013 RMK AO2 SLP213 T10171139 ?
KMKE 261852Z 24006KT 10SM BKN090 OVC130 M02/M13 A3015 RMK AO2 SLP221 T10171133 ?
KMKE 261752Z 28005KT 10SM BKN100 OVC150 M02/M13 A3018 RMK AO2 SLP233 T10221133 11022 21078 58018 ?
KMKE 261652Z 28006KT 10SM FEW100 SCT130 BKN250 M03/M13 A3020 RMK AO2 SLP237 T10331133 ?
KMKE 261552Z 30006KT 10SM FEW120 BKN140 BKN200 M05/M14 A3023 RMK AO2 SLP250 T10501139 ?
WC KMKE
WS KMKE
WV KMKE